Hovedside
METAR-TAF:

METAR-TAF

Lufthavner :

Berlevåg lufthavn

Berlevåg, Norge

breddegrad: 70-52N, lengdegrad: 029-02E, høyde over havet: 1 m

Gjeldene værobservasjon

Denne rapporten ble laget for 50 minutter siden, klokken 13:50 UTC
Vind 3 kt fra Nord-nordvest, skiftende mellom Vest-nordvest og Nord-nordøst
Temperatur 17°C
Luftfuktighet 68%
Trykk 1019 hPa
Sikt 10 km eller mer
ingen skyer under 1500 m og ingen bygeskyer

METAR: ENBV 181350Z 34003KT 290V030 CAVOK 17/11 Q1019

Tid: 16:40 (14:40 UTC)

Varsel

Denne rapporten ble laget for 3 timer og 40 minutter siden, klokken 11:00 UTC
Varsel gyldig fra 18. klokken 12 UTC til 18. klokken 21 UTC
Vind 8 kt fra Øst-nordøst
Sikt 10 km eller mer
Få skyer i en høyde av 5000 ft

TAF: ENBV 181100Z 1812/1821 07008KT 9999 FEW050

Værobservasjoner og værvarsel for over 4000 flyplasser (METAR- og TAF-rapporter).

Tilgjengelige stasjoner er representert av de røde og gule prikkene på kartet.

Hold musepekeren over prikken for å se navnet på stasjonen.

Klikk så for å se værobservasjoner og -varsler.

For å forandre kartet kan du klikke på den grønne knappen med svart kryss for å zoome inn, på den grønne knappen med strek for å zoome ut, eller på de grønne pilene for å se tilstøtende kart.


METAR-TAF: